Главная страница
METAR-TAF:

METAR-TAF

Аэропорты :

Минск-1, Белоруссия

широта: 53-51-54N, долгота: 027-32-30E, высота над уровнем моря: 228 м

Текущие метеонаблюдения

Эта сводка был подготовлена 24 минут назад, в 07:00 UTC
Ветер 10 Узел от южный-юго-западный
Температура 13°C
Влажность 88%
Давление 1005 hPa
Видимость: 6000 м
Отдельные облака на высоте 1300 фута
Рассеянная облачность на высоте 10000 фута

METAR: UMMM 290700Z 20005MPS 6000 SCT013 BKN100 13/11 Q1005 RMK QFE735

Время: 10:24 (07:24 UTC)


TAF: отсутствует

Метеонаблюдения и прогнозы для более 4000 аэропортов (сводки METAR и TAF).

Имеющиеся станции представлены на карте желтыми и красными точками.

Чтобы увидеть название станции, наведите на нее мышь.

Затем щелкните, чтобы увидеть метеонаблюдения и метеопрогнозы.

Управление картой: чтобы увеличить масштаб, щелкните зеленые кнопки с черным крестиком; чтобы уменьшить масштаб, щелкните зеленую кнопку с тире; для просмотра соседних карт щелкайте зеленые стрелки.


METAR-TAF: